Time;durP1;ratioP1;P1;durP2;ratioP2;P2;SDS_P1;SDS_P2;PMS_P1;PMS_P2;Temp;Humidity;BMP_temperature;BMP_pressure;BME280_temperature;BME280_humidity;BME280_pressure;Samples;Min_cycle;Max_cycle;Signal;HPM_P1;HPM_P2
2023/07/31 00:07:59;;;;;;;6.53;2.10;;;;;;;19.48;62.76;99148.72;7216591;40;20277;31
2023/07/31 00:18:36;;;;;;;3.40;1.70;;;;;;;19.32;63.28;99141.88;7258621;39;20286;31
2023/07/31 00:29:15;;;;;;;4.30;2.20;;;;;;;19.24;64.39;99141.31;7276344;39;20313;31
2023/07/31 00:34:51;;;;;;;5.57;2.13;;;;;;;19.23;63.30;99137.75;7247379;40;20390;31
2023/07/31 00:40:13;;;;;;;8.03;2.20;;;;;;;19.24;63.75;99133.13;7241728;40;20324;31
2023/07/31 00:45:47;;;;;;;3.70;2.07;;;;;;;19.28;62.84;99116.03;7317503;39;20248;31
2023/07/31 00:51:24;;;;;;;3.40;1.97;;;;;;;19.36;62.23;99117.66;7255566;40;20261;31
2023/07/31 00:56:59;;;;;;;6.65;2.20;;;;;;;19.26;62.41;99115.41;7215128;40;20364;31
2023/07/31 01:02:34;;;;;;;6.33;2.50;;;;;;;19.27;62.51;99117.09;7174075;40;20280;31
2023/07/31 01:08:10;;;;;;;4.43;2.30;;;;;;;19.29;62.02;99106.78;7186066;40;20279;31
2023/07/31 01:13:45;;;;;;;4.70;1.90;;;;;;;19.27;60.87;99103.44;7195674;40;20269;31
2023/07/31 01:19:20;;;;;;;5.33;2.47;;;;;;;19.37;60.86;99105.66;7182204;40;20264;31
2023/07/31 01:24:54;;;;;;;5.00;2.30;;;;;;;19.33;60.23;99107.16;7163382;40;20279;31
2023/07/31 01:35:35;;;;;;;6.00;2.10;;;;;;;19.25;61.37;99091.06;7121116;40;20266;31
2023/07/31 01:41:10;;;;;;;5.90;2.50;;;;;;;19.16;60.63;99085.06;7153090;40;20383;31
2023/07/31 01:46:30;;;;;;;5.30;2.27;;;;;;;19.14;61.02;99078.13;7189541;40;20260;31
2023/07/31 01:52:06;;;;;;;4.50;2.60;;;;;;;19.14;61.23;99072.66;7332535;39;20257;31
2023/07/31 01:57:41;;;;;;;8.25;2.60;;;;;;;19.16;60.55;99067.81;7229890;40;20414;31
2023/07/31 02:03:02;;;;;;;4.70;2.17;;;;;;;19.18;60.65;99062.94;7194971;40;20269;31
2023/07/31 02:08:37;;;;;;;4.35;2.45;;;;;;;19.17;60.76;99066.75;7214891;40;21268;31
2023/07/31 02:14:12;;;;;;;4.83;2.40;;;;;;;19.19;60.83;99062.72;7181106;40;20419;31
2023/07/31 02:19:32;;;;;;;7.10;2.40;;;;;;;19.21;60.98;99055.16;7171634;40;20270;31
2023/07/31 02:25:05;;;;;;;5.23;2.50;;;;;;;19.17;60.01;99050.38;7213536;40;20277;31
2023/07/31 02:30:40;;;;;;;4.53;2.50;;;;;;;19.15;60.84;99050.59;7185019;40;20274;31
2023/07/31 02:36:00;;;;;;;5.50;2.40;;;;;;;19.05;62.35;99041.22;7201850;40;20366;31
2023/07/31 02:41:36;;;;;;;7.10;2.70;;;;;;;19.04;63.33;99047.75;7196685;40;20254;31
2023/07/31 02:47:11;;;;;;;5.73;2.33;;;;;;;19.12;62.42;99052.94;7222062;40;20254;31
2023/07/31 02:52:46;;;;;;;3.40;2.05;;;;;;;19.11;62.54;99048.53;7172327;40;20273;31
2023/07/31 02:58:19;;;;;;;5.60;2.10;;;;;;;19.14;64.07;99031.66;7221833;40;20261;31
2023/07/31 03:03:54;;;;;;;5.60;2.40;;;;;;;19.06;63.74;99042.91;7204064;40;20341;31
2023/07/31 03:09:14;;;;;;;5.05;2.40;;;;;;;19.02;63.59;99044.41;7193456;40;20274;31
2023/07/31 03:14:50;;;;;;;4.63;2.57;;;;;;;18.99;64.57;99034.78;7221104;40;20296;31
2023/07/31 03:25:14;;;;;;;5.70;2.10;;;;;;;19.01;63.51;99032.63;7238506;40;20281;31
2023/07/31 03:30:45;;;;;;;3.50;2.20;;;;;;;18.99;63.83;99031.22;7033816;40;21409;31
2023/07/31 03:36:20;;;;;;;5.43;2.17;;;;;;;18.98;64.10;99035.00;7253540;40;20395;31
2023/07/31 03:41:55;;;;;;;5.43;2.40;;;;;;;19.00;64.57;99043.81;7211702;40;20281;31
2023/07/31 03:47:31;;;;;;;6.33;2.20;;;;;;;19.03;63.54;99041.47;7192040;40;20250;31
2023/07/31 03:53:06;;;;;;;7.83;2.40;;;;;;;19.00;64.14;99041.06;7185201;40;20250;31
2023/07/31 03:58:26;;;;;;;4.47;2.50;;;;;;;19.03;63.78;99035.16;7098685;41;20275;31
2023/07/31 04:04:02;;;;;;;6.77;2.40;;;;;;;19.00;63.80;99036.41;7178465;40;20470;31
2023/07/31 04:09:22;;;;;;;4.70;2.13;;;;;;;19.00;64.18;99036.41;7226610;40;20352;31
2023/07/31 04:14:42;;;;;;;3.80;2.65;;;;;;;18.98;63.74;99035.81;7203812;40;20349;31
2023/07/31 04:20:20;;;;;;;5.17;2.60;;;;;;;19.00;64.88;99030.97;7219018;40;20281;31
2023/07/31 04:30:44;;;;;;;4.18;2.38;;;;;;;19.03;64.54;99018.75;7258177;40;20277;31
2023/07/31 04:36:17;;;;;;;6.30;2.50;;;;;;;19.02;64.36;99022.56;7319815;39;20266;31
2023/07/31 04:41:49;;;;;;;6.10;2.70;;;;;;;19.05;63.51;99025.66;7276816;39;20341;31
2023/07/31 04:47:21;;;;;;;5.73;2.50;;;;;;;18.95;63.16;99022.62;7272889;40;20249;31
2023/07/31 04:52:58;;;;;;;4.83;2.90;;;;;;;18.87;64.14;99009.22;7257308;40;20250;31
2023/07/31 04:58:29;;;;;;;5.33;2.67;;;;;;;18.85;63.64;99009.47;7223933;40;20257;31
2023/07/31 05:04:04;;;;;;;6.20;2.67;;;;;;;18.81;64.09;99013.72;7185199;40;20265;31
2023/07/31 05:09:40;;;;;;;5.73;2.40;;;;;;;18.82;63.24;99004.44;7143829;40;20263;31
2023/07/31 05:15:00;;;;;;;6.17;2.77;;;;;;;18.88;63.56;99009.03;7182058;40;20259;31
2023/07/31 05:20:18;;;;;;;5.27;2.50;;;;;;;18.96;63.93;98996.97;7185590;40;20257;31
2023/07/31 05:25:54;;;;;;;5.47;2.87;;;;;;;19.01;63.79;98996.28;7220510;40;20324;31
2023/07/31 05:31:15;;;;;;;6.10;2.60;;;;;;;19.11;64.06;98997.44;7201511;40;20243;31
2023/07/31 05:36:50;;;;;;;5.00;2.40;;;;;;;19.18;63.10;99002.81;7219776;40;21825;31
2023/07/31 05:42:26;;;;;;;9.77;2.97;;;;;;;19.25;62.49;98998.16;7196088;40;20348;31
2023/07/31 05:47:46;;;;;;;6.33;3.10;;;;;;;19.23;62.99;98997.53;7211615;40;20270;31
2023/07/31 05:58:24;;;;;;;6.90;2.50;;;;;;;19.27;62.89;98987.81;7209815;40;20281;31
2023/07/31 06:03:42;;;;;;;7.77;2.37;;;;;;;19.36;62.76;98986.44;7280988;39;21346;31
2023/07/31 06:09:03;;;;;;;4.55;2.70;;;;;;;19.37;63.13;98993.59;7265901;39;20252;31
2023/07/31 06:14:37;;;;;;;6.30;2.70;;;;;;;19.36;62.49;98983.72;7291303;39;20400;31
2023/07/31 06:20:12;;;;;;;5.37;2.60;;;;;;;19.42;63.61;98990.16;7207497;40;20272;31
2023/07/31 06:25:44;;;;;;;6.67;2.60;;;;;;;19.42;63.93;98995.63;7173423;40;20352;31
2023/07/31 06:31:22;;;;;;;5.43;2.70;;;;;;;19.39;63.83;98988.75;7220799;40;20287;31
2023/07/31 06:36:42;;;;;;;7.57;2.90;;;;;;;19.42;63.84;98985.53;7192219;40;20297;31
2023/07/31 06:42:16;;;;;;;7.53;2.90;;;;;;;19.46;64.45;98972.28;7205122;40;20272;31
2023/07/31 06:47:52;;;;;;;6.23;2.53;;;;;;;19.49;63.98;98980.84;7224767;40;20269;31
2023/07/31 06:53:10;;;;;;;6.33;2.33;;;;;;;19.54;63.40;98977.41;7201722;40;20300;31
2023/07/31 06:58:28;;;;;;;4.65;2.40;;;;;;;19.72;63.34;98972.78;7242211;40;20267;31
2023/07/31 07:04:01;;;;;;;4.30;2.80;;;;;;;19.98;61.67;98959.78;7215442;40;20284;31
2023/07/31 07:09:19;;;;;;;4.06;2.20;;;;;;;20.11;61.98;98959.59;7196931;40;21535;31
2023/07/31 07:14:52;;;;;;;6.10;2.60;;;;;;;20.21;62.13;98955.22;7210901;40;20271;31
2023/07/31 07:20:27;;;;;;;4.87;2.50;;;;;;;20.50;60.10;98961.72;7249729;40;20279;31
2023/07/31 07:26:02;;;;;;;5.60;2.70;;;;;;;20.57;61.26;98961.62;7225761;40;20303;31
2023/07/31 07:31:37;;;;;;;5.77;2.57;;;;;;;20.48;61.56;98963.03;7263484;40;20272;31
2023/07/31 07:37:10;;;;;;;4.67;2.40;;;;;;;20.49;60.62;98946.34;7232316;40;20270;31
2023/07/31 07:42:31;;;;;;;8.48;2.90;;;;;;;20.54;60.79;98953.84;7226125;40;20257;31
2023/07/31 07:48:02;;;;;;;5.50;2.83;;;;;;;20.33;60.56;98949.78;7253801;40;20249;31
2023/07/31 07:53:38;;;;;;;6.25;2.40;;;;;;;20.23;60.54;98957.69;7285897;39;21814;31
2023/07/31 07:58:59;;;;;;;4.70;2.57;;;;;;;20.38;62.19;98951.81;7232538;40;20340;31
2023/07/31 08:04:19;;;;;;;6.27;2.83;;;;;;;20.49;60.70;98943.59;7241487;40;20306;31
2023/07/31 08:09:51;;;;;;;6.55;2.80;;;;;;;20.79;60.75;98948.16;7228271;40;20281;31
2023/07/31 08:15:09;;;;;;;5.67;2.60;;;;;;;21.11;58.53;98949.44;7250624;40;20249;31
2023/07/31 08:20:45;;;;;;;10.85;2.70;;;;;;;21.36;59.01;98940.97;7273438;40;20260;31
2023/07/31 08:26:16;;;;;;;5.65;2.60;;;;;;;21.86;57.82;98919.19;7274138;40;20297;31
2023/07/31 08:31:33;;;;;;;8.10;3.30;;;;;;;22.09;57.12;98919.09;7224032;40;20253;31
2023/07/31 08:36:50;;;;;;;5.43;2.75;;;;;;;22.09;56.97;98907.28;7277101;40;20353;31
2023/07/31 08:42:26;;;;;;;5.75;2.47;;;;;;;22.30;57.26;98923.00;7248622;40;20464;31
2023/07/31 08:47:56;;;;;;;4.25;2.92;;;;;;;22.44;56.37;98918.87;7222400;40;20371;31
2023/07/31 08:58:48;;;;;;;5.38;2.60;;;;;;;22.15;57.40;98904.37;7266568;39;21244;31
2023/07/31 09:09:24;;;;;;;4.15;2.50;;;;;;;22.30;57.81;98888.16;7285202;40;20268;31
2023/07/31 09:19:59;;;;;;;6.72;2.98;;;;;;;22.20;57.97;98877.03;7280635;40;20371;31
2023/07/31 09:25:31;;;;;;;3.97;2.87;;;;;;;22.10;57.64;98884.25;7273682;40;20265;31
2023/07/31 09:31:03;;;;;;;7.10;3.10;;;;;;;22.09;57.94;98877.91;7262530;40;20436;31
2023/07/31 09:41:43;;;;;;;5.05;2.50;;;;;;;22.18;57.46;98867.34;7249847;40;20287;31
2023/07/31 09:52:22;;;;;;;4.65;2.90;;;;;;;22.29;57.59;98864.50;7232147;40;20528;31
2023/07/31 10:03:02;;;;;;;7.30;2.80;;;;;;;22.41;56.46;98846.03;7276627;39;20301;31
2023/07/31 10:13:41;;;;;;;5.68;3.00;;;;;;;22.33;55.17;98849.22;7293386;39;20302;31
2023/07/31 10:19:14;;;;;;;9.00;2.90;;;;;;;22.37;54.69;98839.41;7249757;40;20371;31
2023/07/31 10:29:50;;;;;;;6.78;3.18;;;;;;;22.77;54.30;98830.09;7253117;40;20285;31
2023/07/31 10:35:26;;;;;;;6.07;3.20;;;;;;;22.89;53.52;98825.31;7065474;40;20249;31
2023/07/31 10:41:20;;;;;;;6.35;3.10;;;;;;;22.71;53.51;98831.09;7248076;40;20260;31
2023/07/31 10:51:57;;;;;;;8.04;3.20;;;;;;;22.68;53.09;98823.34;7193228;40;20475;31
2023/07/31 10:57:35;;;;;;;5.62;2.97;;;;;;;22.64;53.58;98820.25;7106687;41;20309;31
2023/07/31 11:03:12;;;;;;;7.10;3.30;;;;;;;22.59;54.05;98824.88;7202424;40;22218;31
2023/07/31 11:08:47;;;;;;;5.83;2.60;;;;;;;22.71;53.40;98803.63;7192974;40;20296;31
2023/07/31 11:19:21;;;;;;;5.24;2.68;;;;;;;22.70;54.71;98810.19;7204057;40;20282;31
2023/07/31 11:29:58;;;;;;;7.22;3.35;;;;;;;22.97;53.25;98797.37;7244573;40;21500;31
2023/07/31 11:35:33;;;;;;;7.36;3.08;;;;;;;23.12;52.97;98789.31;7317009;39;20338;31
2023/07/31 11:41:05;;;;;;;4.85;2.65;;;;;;;23.49;52.64;98788.63;7266237;40;20268;31
2023/07/31 11:46:38;;;;;;;6.60;3.17;;;;;;;23.62;53.77;98794.53;7235424;40;20297;31
2023/07/31 11:57:26;;;;;;;8.30;2.65;;;;;;;24.06;52.89;98764.06;7193872;40;21531;31
2023/07/31 12:03:02;;;;;;;4.72;3.00;;;;;;;24.10;51.15;98755.00;7161279;40;20268;31
2023/07/31 12:08:34;;;;;;;4.50;2.60;;;;;;;24.24;51.69;98749.91;7174506;40;20332;31
2023/07/31 12:14:09;;;;;;;4.07;2.77;;;;;;;24.19;52.96;98741.59;7161199;40;20321;31
2023/07/31 12:19:45;;;;;;;5.55;3.05;;;;;;;24.03;52.01;98750.81;7111827;41;20263;31
2023/07/31 12:25:20;;;;;;;7.03;2.75;;;;;;;23.91;52.64;98751.03;7119015;41;21232;31
2023/07/31 12:30:55;;;;;;;4.93;2.58;;;;;;;23.88;52.10;98746.03;7138302;40;20247;31
2023/07/31 12:36:35;;;;;;;6.70;3.04;;;;;;;24.19;52.28;98758.97;7139569;40;20254;31
2023/07/31 12:42:06;;;;;;;5.80;2.80;;;;;;;23.84;51.35;98741.31;7174570;40;20261;31
2023/07/31 12:47:26;;;;;;;6.15;3.10;;;;;;;23.78;52.68;98741.25;7183315;40;20262;31
2023/07/31 12:53:03;;;;;;;7.40;3.00;;;;;;;24.05;53.29;98732.09;7252111;39;20365;31
2023/07/31 12:58:37;;;;;;;5.20;2.80;;;;;;;24.03;52.75;98726.03;7220203;40;20328;31
2023/07/31 13:04:12;;;;;;;7.20;2.70;;;;;;;24.13;53.06;98718.66;7186050;40;20460;31
2023/07/31 13:09:45;;;;;;;5.22;2.50;;;;;;;24.20;52.90;98697.28;7145361;40;21389;31
2023/07/31 13:15:18;;;;;;;5.25;2.80;;;;;;;24.17;52.89;98705.25;7143053;40;20267;31
2023/07/31 13:20:39;;;;;;;5.78;2.80;;;;;;;24.22;53.33;98689.53;7136006;40;20247;31
2023/07/31 13:26:14;;;;;;;6.70;2.70;;;;;;;24.18;52.91;98693.09;7152652;40;20265;31
2023/07/31 13:31:35;;;;;;;6.20;3.35;;;;;;;24.22;52.40;98695.06;7134084;40;20346;31
2023/07/31 13:37:06;;;;;;;5.30;2.70;;;;;;;24.27;52.75;98685.16;7162645;40;20262;31
2023/07/31 13:47:45;;;;;;;6.15;2.85;;;;;;;24.41;53.08;98689.94;7238901;40;20261;31
2023/07/31 13:53:17;;;;;;;5.47;2.72;;;;;;;24.28;53.73;98693.16;7256155;40;20485;31
2023/07/31 13:58:52;;;;;;;5.65;2.70;;;;;;;24.12;53.08;98697.75;7237585;40;20250;31
2023/07/31 14:04:23;;;;;;;6.75;3.10;;;;;;;23.99;54.37;98700.13;7253596;40;20292;31
2023/07/31 14:09:40;;;;;;;4.40;2.65;;;;;;;23.80;53.58;98674.94;7247551;40;20362;31
2023/07/31 14:15:01;;;;;;;6.80;2.95;;;;;;;23.74;55.31;98676.00;7242795;40;21345;31
2023/07/31 14:20:37;;;;;;;6.03;2.95;;;;;;;23.62;55.04;98664.34;7232977;40;20257;31
2023/07/31 14:25:57;;;;;;;5.12;2.58;;;;;;;23.65;54.84;98659.16;7223038;40;22046;31
2023/07/31 14:31:14;;;;;;;5.76;2.70;;;;;;;23.69;55.77;98651.22;7244973;40;20274;31
2023/07/31 14:36:50;;;;;;;3.87;2.50;;;;;;;23.87;55.29;98641.69;7209450;40;20275;31
2023/07/31 14:42:25;;;;;;;6.78;2.65;;;;;;;24.04;54.44;98612.88;7252079;40;20266;31
2023/07/31 14:47:45;;;;;;;6.20;2.87;;;;;;;24.07;54.73;98592.22;7226588;40;20269;31
2023/07/31 14:53:16;;;;;;;4.32;2.60;;;;;;;24.10;55.54;98594.44;7221048;40;20370;31
2023/07/31 14:58:36;;;;;;;6.72;2.88;;;;;;;24.20;54.40;98592.59;7261269;40;20246;31
2023/07/31 15:03:56;;;;;;;4.85;2.80;;;;;;;24.12;54.64;98590.34;7267762;39;20352;31
2023/07/31 15:09:29;;;;;;;4.93;2.72;;;;;;;24.08;55.84;98585.63;7239287;40;20347;31
2023/07/31 15:15:01;;;;;;;3.75;2.75;;;;;;;23.94;56.12;98579.78;7204957;40;20284;31
2023/07/31 15:20:21;;;;;;;6.60;2.90;;;;;;;23.86;55.45;98579.47;7215932;40;20444;31
2023/07/31 15:25:57;;;;;;;6.22;2.80;;;;;;;23.62;56.06;98595.56;7200273;40;21344;31
2023/07/31 15:31:17;;;;;;;5.17;3.13;;;;;;;23.47;56.96;98584.47;7195240;40;20324;31
2023/07/31 15:36:47;;;;;;;5.82;3.22;;;;;;;23.50;56.09;98600.44;7237398;40;20272;31
2023/07/31 15:47:25;;;;;;;5.70;2.50;;;;;;;23.38;57.24;98555.75;7239686;40;20276;31
2023/07/31 15:52:45;;;;;;;9.20;3.03;;;;;;;23.33;57.54;98557.38;7214194;40;20258;31
2023/07/31 15:58:20;;;;;;;5.07;2.67;;;;;;;23.29;57.49;98559.00;7228159;40;20249;31
2023/07/31 16:03:56;;;;;;;7.07;3.00;;;;;;;23.18;57.02;98553.69;7214422;40;20269;31
2023/07/31 16:09:31;;;;;;;5.64;3.24;;;;;;;23.09;57.57;98547.00;7158025;40;20326;31
2023/07/31 16:15:06;;;;;;;4.68;2.97;;;;;;;23.09;57.83;98527.75;7216589;40;20265;31
2023/07/31 16:20:42;;;;;;;6.63;2.77;;;;;;;23.02;58.14;98532.66;7233393;40;20327;31
2023/07/31 16:26:14;;;;;;;3.20;2.80;;;;;;;22.98;57.69;98532.38;7203915;40;20266;31
2023/07/31 16:36:37;;;;;;;7.90;3.10;;;;;;;22.82;58.96;98536.06;7235908;40;21080;31
2023/07/31 16:46:58;;;;;;;5.20;3.00;;;;;;;22.74;58.66;98542.03;7258097;40;21261;31
2023/07/31 16:52:35;;;;;;;7.90;3.05;;;;;;;22.58;61.65;98531.97;7275668;40;20258;31
2023/07/31 16:58:10;;;;;;;5.50;2.90;;;;;;;22.22;63.57;98536.28;7208396;40;20288;31
2023/07/31 17:03:42;;;;;;;5.20;2.90;;;;;;;22.11;63.94;98532.59;7161073;40;20352;31
2023/07/31 17:09:04;;;;;;;4.90;2.90;;;;;;;22.05;63.47;98533.62;7204855;40;20258;31
2023/07/31 17:14:21;;;;;;;5.75;2.70;;;;;;;21.99;64.33;98523.66;7155621;40;20337;31
2023/07/31 17:19:53;;;;;;;4.13;2.90;;;;;;;22.05;65.55;98525.38;6968778;40;20234;31
2023/07/31 17:25:38;;;;;;;4.25;3.00;;;;;;;21.99;66.42;98542.88;7208585;40;20278;31
2023/07/31 17:31:12;;;;;;;5.45;3.08;;;;;;;21.83;66.67;98532.78;7145534;40;20246;31
2023/07/31 17:36:32;;;;;;;3.60;2.85;;;;;;;21.69;68.27;98539.72;7202682;40;20419;31
2023/07/31 17:42:06;;;;;;;5.57;3.07;;;;;;;21.67;68.15;98525.44;7233668;40;20249;31
2023/07/31 17:47:26;;;;;;;5.37;3.10;;;;;;;21.68;67.46;98525.16;7230329;40;20365;31
2023/07/31 17:52:58;;;;;;;4.40;2.78;;;;;;;21.62;68.05;98514.37;7262245;40;20265;31
2023/07/31 18:03:36;;;;;;;6.55;3.33;;;;;;;21.47;68.90;98504.88;7200826;40;20327;31
2023/07/31 18:14:11;;;;;;;5.64;2.96;;;;;;;21.36;68.73;98483.91;7189104;40;20265;31
2023/07/31 18:19:44;;;;;;;4.12;2.45;;;;;;;21.26;68.29;98482.91;7177454;40;20343;31
2023/07/31 18:25:01;;;;;;;4.55;2.90;;;;;;;21.17;69.60;98473.47;7183051;40;20352;31
2023/07/31 18:30:36;;;;;;;4.08;2.60;;;;;;;21.09;68.43;98452.78;7235364;40;20261;31
2023/07/31 18:36:09;;;;;;;4.25;2.67;;;;;;;21.05;69.31;98435.19;7202100;40;20304;31
2023/07/31 18:41:26;;;;;;;5.03;3.10;;;;;;;21.02;68.22;98463.91;7185538;40;20265;31
2023/07/31 18:46:58;;;;;;;4.40;2.60;;;;;;;20.92;69.99;98471.16;7248879;40;22368;31
2023/07/31 18:52:31;;;;;;;3.70;2.60;;;;;;;20.91;70.05;98467.59;7163439;40;21360;31
2023/07/31 18:58:03;;;;;;;4.35;2.95;;;;;;;20.84;69.58;98469.66;7166980;40;20272;31
2023/07/31 19:03:35;;;;;;;4.30;2.50;;;;;;;20.80;70.13;98470.41;7234243;40;20257;31
2023/07/31 19:09:11;;;;;;;4.65;2.70;;;;;;;20.76;70.15;98477.44;7172440;40;20246;31
2023/07/31 19:14:43;;;;;;;5.22;2.85;;;;;;;20.82;69.52;98482.78;7183923;40;20262;31
2023/07/31 19:20:01;;;;;;;3.75;2.50;;;;;;;20.81;69.53;98480.28;7166312;40;20256;31
2023/07/31 19:25:35;;;;;;;4.15;2.70;;;;;;;20.77;70.48;98482.69;7231576;40;20413;31
2023/07/31 19:31:03;;;;;;;2.93;2.57;;;;;;;20.75;70.32;98473.91;7263673;40;20257;31
2023/07/31 19:36:21;;;;;;;4.90;2.90;;;;;;;20.71;68.57;98471.91;7204731;40;20261;31
2023/07/31 19:41:53;;;;;;;3.67;2.53;;;;;;;20.69;68.38;98466.69;7213689;40;20253;31
2023/07/31 19:47:11;;;;;;;3.75;2.50;;;;;;;20.68;69.17;98463.09;7245573;40;20452;31
2023/07/31 19:52:42;;;;;;;3.03;2.40;;;;;;;20.66;68.67;98443.38;7274372;40;20267;31
2023/07/31 19:58:15;;;;;;;4.62;2.50;;;;;;;20.61;68.72;98439.72;7254537;40;20261;31
2023/07/31 20:03:47;;;;;;;2.97;2.47;;;;;;;20.63;69.74;98430.16;7184261;40;20273;31
2023/07/31 20:09:05;;;;;;;5.10;2.83;;;;;;;20.64;68.67;98420.88;7184080;40;20270;31
2023/07/31 20:14:40;;;;;;;4.85;2.60;;;;;;;20.65;70.64;98402.53;7161733;40;20258;31
2023/07/31 20:20:01;;;;;;;5.12;2.90;;;;;;;20.61;69.32;98407.69;7169244;40;20262;31
2023/07/31 20:25:34;;;;;;;4.23;2.70;;;;;;;20.59;69.86;98404.34;7176435;40;20376;31
2023/07/31 20:36:12;;;;;;;4.30;2.50;;;;;;;20.62;69.58;98403.84;7219378;40;20358;31
2023/07/31 20:46:37;;;;;;;3.97;2.60;;;;;;;20.67;68.82;98384.75;7245518;40;20397;31
2023/07/31 20:52:12;;;;;;;4.70;2.80;;;;;;;20.63;70.35;98364.44;7238658;39;20265;31
2023/07/31 20:57:45;;;;;;;5.30;2.90;;;;;;;20.58;70.25;98358.88;7227069;40;21813;31
2023/07/31 21:08:25;;;;;;;4.55;2.65;;;;;;;20.56;69.29;98344.63;7261561;39;20285;31
2023/07/31 21:13:57;;;;;;;4.62;2.78;;;;;;;20.66;69.26;98335.72;7285278;40;22266;31
2023/07/31 21:19:29;;;;;;;5.95;3.10;;;;;;;20.62;70.27;98331.84;7270353;40;20288;31
2023/07/31 21:25:05;;;;;;;4.05;2.80;;;;;;;20.57;71.88;98307.13;7236629;40;20260;31
2023/07/31 21:30:37;;;;;;;4.35;2.70;;;;;;;20.73;71.31;98294.44;7225149;40;20272;31
2023/07/31 21:35:57;;;;;;;4.60;3.00;;;;;;;20.77;71.68;98279.16;7188759;40;20269;31
2023/07/31 21:41:30;;;;;;;4.78;2.87;;;;;;;20.73;71.37;98245.97;7149775;40;21462;31
2023/07/31 21:46:47;;;;;;;3.50;2.60;;;;;;;20.63;71.47;98237.62;7184806;40;20262;31
2023/07/31 21:52:22;;;;;;;5.70;2.90;;;;;;;20.53;73.70;98221.91;7193132;40;20238;31
2023/07/31 21:57:58;;;;;;;5.62;3.08;;;;;;;20.42;74.41;98200.94;7193909;40;20258;31
2023/07/31 22:03:15;;;;;;;4.47;3.00;;;;;;;20.40;74.54;98191.34;7221008;40;20272;31
2023/07/31 22:08:32;;;;;;;7.45;3.10;;;;;;;20.31;74.83;98184.66;7197474;40;20393;31
2023/07/31 22:14:05;;;;;;;5.80;3.20;;;;;;;20.31;76.41;98180.03;7231865;40;20257;31
2023/07/31 22:24:26;;;;;;;4.10;3.03;;;;;;;20.36;75.34;98169.09;7277791;39;20280;31
2023/07/31 22:29:59;;;;;;;5.20;3.30;;;;;;;20.28;76.33;98161.31;7299880;39;20247;31
2023/07/31 22:35:31;;;;;;;6.65;3.35;;;;;;;20.30;75.90;98152.91;7290817;39;20352;31
2023/07/31 22:40:48;;;;;;;8.10;3.87;;;;;;;20.31;75.75;98149.91;7254903;40;20264;31
2023/07/31 22:46:19;;;;;;;5.05;3.30;;;;;;;20.34;75.71;98152.12;7289456;39;21579;31
2023/07/31 22:51:36;;;;;;;6.80;3.30;;;;;;;20.27;77.29;98150.66;7240154;40;20342;31
2023/07/31 22:57:11;;;;;;;6.00;3.30;;;;;;;20.22;76.77;98143.19;7299797;39;20352;31
2023/07/31 23:02:42;;;;;;;5.47;3.33;;;;;;;20.18;77.74;98151.06;7282062;39;20416;31
2023/07/31 23:07:59;;;;;;;7.78;3.75;;;;;;;20.10;78.01;98145.19;7278630;40;20327;31
2023/07/31 23:13:34;;;;;;;6.25;3.45;;;;;;;19.97;79.16;98126.41;7292674;40;20264;31
2023/07/31 23:19:10;;;;;;;7.57;3.60;;;;;;;19.95;78.83;98145.00;7205002;40;20250;31
2023/07/31 23:24:45;;;;;;;5.53;3.15;;;;;;;19.91;79.63;98131.03;7247104;40;20287;31
2023/07/31 23:30:21;;;;;;;5.50;3.40;;;;;;;19.83;81.34;98125.16;7213877;40;20250;31
2023/07/31 23:35:57;;;;;;;5.93;3.53;;;;;;;19.82;81.44;98096.16;7175876;40;20290;31
2023/07/31 23:41:32;;;;;;;7.10;3.40;;;;;;;19.78;80.68;98079.41;7182551;40;20278;31
2023/07/31 23:47:04;;;;;;;9.37;4.43;;;;;;;19.80;81.18;98071.78;7178929;40;20286;31
2023/07/31 23:57:42;;;;;;;6.50;3.87;;;;;;;19.68;81.39;98030.06;7171935;40;20279;31
